createdAt,value
2018-10-17T00:02:21.287Z,12.17
2018-10-17T00:06:24.849Z,11.63
2018-10-17T00:10:28.249Z,11.30
2018-10-17T00:14:31.601Z,9.80
2018-10-17T00:18:35.476Z,8.87
2018-10-17T00:22:38.815Z,9.53
2018-10-17T00:26:42.172Z,8.83
2018-10-17T00:30:45.534Z,7.80
2018-10-17T00:34:48.904Z,7.80
2018-10-17T00:38:52.268Z,8.17
2018-10-17T00:42:56.225Z,7.80
2018-10-17T00:46:59.634Z,8.53
2018-10-17T00:51:02.990Z,7.77
2018-10-17T00:55:06.834Z,9.07
2018-10-17T00:59:12.651Z,9.30
2018-10-17T01:03:15.962Z,9.50
2018-10-17T01:07:19.330Z,9.20
2018-10-17T01:11:22.701Z,9.20
2018-10-17T01:15:26.152Z,9.70
2018-10-17T01:19:29.518Z,10.33
2018-10-17T01:23:32.901Z,9.07
2018-10-17T01:27:36.294Z,8.60
2018-10-17T01:31:39.675Z,7.80
2018-10-17T01:35:43.052Z,10.27
2018-10-17T01:39:46.386Z,6.30
2018-10-17T01:43:49.753Z,8.77
2018-10-17T01:47:53.128Z,13.10
2018-10-17T01:51:56.493Z,11.30
2018-10-17T01:56:00.167Z,10.53
2018-10-17T02:00:03.672Z,10.50
2018-10-17T02:04:07.032Z,10.00
2018-10-17T02:08:10.405Z,9.67
2018-10-17T02:12:13.759Z,10.07
2018-10-17T02:16:17.122Z,9.87
2018-10-17T02:20:20.482Z,9.03
2018-10-17T02:24:23.857Z,9.37
2018-10-17T02:28:27.260Z,9.13
2018-10-17T02:32:30.623Z,9.13
2018-10-17T02:36:33.997Z,9.10
2018-10-17T02:40:37.378Z,7.40
2018-10-17T02:44:40.742Z,6.30
2018-10-17T02:48:44.113Z,7.87
2018-10-17T02:52:47.475Z,8.67
2018-10-17T02:56:50.832Z,8.73
2018-10-17T03:00:54.205Z,9.77
2018-10-17T03:04:57.715Z,9.97
2018-10-17T03:09:01.126Z,10.50
2018-10-17T03:13:04.569Z,10.03
2018-10-17T03:17:07.911Z,10.63
2018-10-17T03:21:11.301Z,9.23
2018-10-17T03:25:14.751Z,9.53
2018-10-17T03:29:18.168Z,11.50
2018-10-17T03:33:21.517Z,12.67
2018-10-17T03:37:24.866Z,11.80
2018-10-17T03:41:28.245Z,10.30
2018-10-17T03:45:31.624Z,8.30
2018-10-17T03:49:35.092Z,7.30
2018-10-17T03:53:38.478Z,8.00
2018-10-17T03:57:41.845Z,8.43
2018-10-17T04:01:45.228Z,8.83
2018-10-17T04:05:48.596Z,9.43
2018-10-17T04:09:51.974Z,10.50
2018-10-17T04:13:55.361Z,10.33
2018-10-17T04:17:58.773Z,9.97
2018-10-17T04:22:02.159Z,9.67
2018-10-17T04:26:05.529Z,8.83
2018-10-17T04:30:08.931Z,8.83
2018-10-17T04:34:12.333Z,10.33
2018-10-17T04:38:15.763Z,9.83
2018-10-17T04:42:19.141Z,9.97
2018-10-17T04:46:22.521Z,11.63
2018-10-17T04:50:25.879Z,13.23
2018-10-17T04:54:29.245Z,12.90
2018-10-17T04:58:32.625Z,10.10
2018-10-17T05:02:36.044Z,10.73
2018-10-17T05:06:39.450Z,9.97
2018-10-17T05:10:42.839Z,10.40
2018-10-17T05:14:46.205Z,9.57
2018-10-17T05:18:49.588Z,10.03
2018-10-17T05:22:53.031Z,11.33
2018-10-17T05:26:56.400Z,10.70
2018-10-17T05:30:59.854Z,10.50
2018-10-17T05:35:03.226Z,10.17
2018-10-17T05:39:07.349Z,12.00
2018-10-17T05:43:10.799Z,11.23
2018-10-17T05:47:14.196Z,12.13
2018-10-17T05:51:17.604Z,13.30
2018-10-17T05:55:21.043Z,13.53
2018-10-17T05:59:24.473Z,13.30
2018-10-17T06:03:27.925Z,13.23
2018-10-17T06:07:31.410Z,12.33
2018-10-17T06:11:34.896Z,12.67
2018-10-17T06:15:38.302Z,12.40
2018-10-17T06:19:41.737Z,12.07
2018-10-17T06:23:45.153Z,13.90
2018-10-17T06:27:48.608Z,12.47
2018-10-17T06:31:51.996Z,13.57
2018-10-17T06:35:55.406Z,13.27
2018-10-17T06:39:58.821Z,12.40
2018-10-17T06:44:02.323Z,13.63
2018-10-17T06:48:06.149Z,13.10
2018-10-17T06:52:09.583Z,13.37
2018-10-17T06:56:12.984Z,13.27
2018-10-17T07:00:16.463Z,13.50
2018-10-17T07:04:19.916Z,13.77
2018-10-17T07:08:23.472Z,14.60
2018-10-17T07:12:26.895Z,15.37
2018-10-17T07:16:30.645Z,14.80
2018-10-17T07:20:34.050Z,15.77
2018-10-17T07:24:37.493Z,14.60
2018-10-17T07:28:40.979Z,16.30
2018-10-17T07:32:44.324Z,17.77
2018-10-17T07:36:47.865Z,19.97
2018-10-17T07:40:51.354Z,20.33
2018-10-17T07:44:54.840Z,20.03
2018-10-17T07:48:58.263Z,20.90
2018-10-17T07:53:01.813Z,19.37
2018-10-17T07:57:05.956Z,18.00
2018-10-17T08:01:09.335Z,17.10
2018-10-17T08:05:12.733Z,17.40
2018-10-17T08:09:16.170Z,16.97
2018-10-17T08:13:19.610Z,16.40
2018-10-17T08:17:23.036Z,17.00
2018-10-17T08:21:26.653Z,17.43
2018-10-17T08:25:29.950Z,16.07
2018-10-17T08:29:33.377Z,16.43
2018-10-17T08:33:37.682Z,17.37
2018-10-17T08:37:41.762Z,17.53
2018-10-17T08:41:44.904Z,16.07
2018-10-17T08:45:48.385Z,15.57
2018-10-17T08:49:51.963Z,16.33
2018-10-17T08:53:55.578Z,15.73
2018-10-17T08:57:59.161Z,16.10
2018-10-17T09:02:02.508Z,16.17
2018-10-17T09:06:10.720Z,14.73
2018-10-17T09:10:14.266Z,16.17
2018-10-17T09:14:18.003Z,15.83
2018-10-17T09:18:21.424Z,15.23
2018-10-17T09:22:25.741Z,15.10
2018-10-17T09:26:29.041Z,15.93
2018-10-17T09:30:32.778Z,17.17
2018-10-17T09:34:36.024Z,17.33
2018-10-17T09:38:40.260Z,14.33
2018-10-17T09:42:44.797Z,13.33
2018-10-17T09:46:48.285Z,13.73
2018-10-17T09:50:51.705Z,12.33
2018-10-17T09:54:55.153Z,12.77
2018-10-17T09:58:58.593Z,13.67
2018-10-17T10:03:02.018Z,12.47
2018-10-17T10:07:05.508Z,11.97
2018-10-17T10:11:09.201Z,11.43
2018-10-17T10:15:12.647Z,10.20
2018-10-17T10:19:16.217Z,9.08
2018-10-17T10:23:19.727Z,8.87
2018-10-17T10:27:23.198Z,8.10
2018-10-17T10:31:26.751Z,7.40
2018-10-17T10:35:30.601Z,7.90
2018-10-17T10:39:34.083Z,6.97
2018-10-17T10:43:37.692Z,6.83
2018-10-17T10:47:41.121Z,7.57
2018-10-17T10:51:44.646Z,6.27
2018-10-17T10:55:48.081Z,6.93
2018-10-17T10:59:51.615Z,6.47
2018-10-17T11:03:55.077Z,7.20
2018-10-17T11:07:58.628Z,6.87
2018-10-17T11:12:02.094Z,6.85
2018-10-17T11:16:05.579Z,6.60
2018-10-17T11:20:09.500Z,6.10
2018-10-17T11:24:13.013Z,6.67
2018-10-17T11:28:16.450Z,6.72
2018-10-17T11:32:19.877Z,6.65
2018-10-17T11:36:23.365Z,6.28
2018-10-17T11:40:26.955Z,6.83
2018-10-17T11:44:30.301Z,6.12
2018-10-17T11:48:33.781Z,6.12
2018-10-17T11:52:37.245Z,5.95
2018-10-17T11:56:40.807Z,6.20
2018-10-17T12:00:44.283Z,5.92
2018-10-17T12:04:48.171Z,6.03
2018-10-17T12:08:51.551Z,5.92
2018-10-17T12:13:01.614Z,5.87
2018-10-17T12:17:05.363Z,6.30
2018-10-17T12:21:08.819Z,5.85
2018-10-17T12:25:12.893Z,6.20
2018-10-17T12:29:16.410Z,5.65
2018-10-17T12:33:19.873Z,6.33
2018-10-17T12:37:23.419Z,5.80
2018-10-17T12:41:27.013Z,6.35
2018-10-17T12:45:30.487Z,6.12
2018-10-17T12:49:33.939Z,5.78
2018-10-17T12:53:37.482Z,5.78
2018-10-17T12:57:40.861Z,6.22
2018-10-17T13:01:44.322Z,5.85
2018-10-17T13:05:47.801Z,5.80
2018-10-17T13:09:51.301Z,5.83
2018-10-17T13:13:54.775Z,6.90
2018-10-17T13:17:58.335Z,5.40
2018-10-17T13:22:01.844Z,6.28
2018-10-17T13:26:05.700Z,6.08
2018-10-17T13:30:09.364Z,6.60
2018-10-17T13:34:12.845Z,6.08
2018-10-17T13:38:16.498Z,5.90
2018-10-17T13:42:19.983Z,6.12
2018-10-17T13:46:23.408Z,5.75
2018-10-17T13:50:26.905Z,6.37
2018-10-17T13:54:30.394Z,5.55
2018-10-17T13:58:33.822Z,6.22
2018-10-17T14:02:37.261Z,6.10
2018-10-17T14:06:40.717Z,6.50
2018-10-17T14:10:44.209Z,5.93
2018-10-17T14:14:47.817Z,6.13
2018-10-17T14:18:51.361Z,6.10
2018-10-17T14:22:54.781Z,6.10
2018-10-17T14:26:58.191Z,6.13
2018-10-17T14:31:01.618Z,6.50
2018-10-17T14:35:07.318Z,6.10
2018-10-17T14:39:12.496Z,6.20
2018-10-17T14:43:16.249Z,5.87
2018-10-17T14:47:19.793Z,6.50
2018-10-17T14:51:23.222Z,6.30
2018-10-17T14:55:26.684Z,6.37
2018-10-17T14:59:30.123Z,6.33
2018-10-17T15:03:33.573Z,6.00
2018-10-17T15:07:37.186Z,6.12
2018-10-17T15:11:41.063Z,6.90
2018-10-17T15:15:45.309Z,6.20
2018-10-17T15:19:48.865Z,6.17
2018-10-17T15:23:52.431Z,6.03
2018-10-17T15:27:56.067Z,6.63
2018-10-17T15:31:59.784Z,6.40
2018-10-17T15:36:03.475Z,6.10
2018-10-17T15:40:07.182Z,8.13
2018-10-17T15:44:17.084Z,8.70
2018-10-17T15:48:20.761Z,7.13
2018-10-17T15:52:24.390Z,6.63
2018-10-17T15:56:28.060Z,6.80
2018-10-17T16:00:31.999Z,7.07
2018-10-17T16:04:35.656Z,6.43
2018-10-17T16:08:39.160Z,7.70
2018-10-17T16:12:42.965Z,7.00
2018-10-17T16:16:46.427Z,7.07
2018-10-17T16:20:49.915Z,8.23
2018-10-17T16:24:53.385Z,8.70
2018-10-17T16:28:56.834Z,9.00
2018-10-17T16:33:00.234Z,9.23
2018-10-17T16:37:03.624Z,9.07
2018-10-17T16:41:07.027Z,9.77
2018-10-17T16:45:11.343Z,10.70
2018-10-17T16:49:14.764Z,10.13
2018-10-17T16:53:18.154Z,10.53
2018-10-17T16:57:21.588Z,9.80
2018-10-17T17:01:24.968Z,10.93
2018-10-17T17:05:28.448Z,9.83
2018-10-17T17:09:31.833Z,10.13
2018-10-17T17:13:35.282Z,9.53
2018-10-17T17:17:38.744Z,10.40
2018-10-17T17:21:42.144Z,9.50
2018-10-17T17:25:45.528Z,9.53
2018-10-17T17:29:49.252Z,11.50
2018-10-17T17:33:53.905Z,9.93
2018-10-17T17:37:58.180Z,11.43
2018-10-17T17:42:01.929Z,11.47
2018-10-17T17:46:07.145Z,11.47
2018-10-17T17:50:11.386Z,11.97
2018-10-17T17:54:15.100Z,11.53
2018-10-17T17:58:18.623Z,11.97
2018-10-17T18:02:22.031Z,12.50
2018-10-17T18:06:25.465Z,12.20
2018-10-17T18:10:29.091Z,10.83
2018-10-17T18:14:32.471Z,11.50
2018-10-17T18:18:35.864Z,10.97
2018-10-17T18:22:39.329Z,11.07
2018-10-17T18:26:42.844Z,10.60
2018-10-17T18:30:46.280Z,11.00
2018-10-17T18:34:49.666Z,11.03
2018-10-17T18:38:53.412Z,12.10
2018-10-17T18:42:56.849Z,11.90
2018-10-17T18:47:00.355Z,11.03
2018-10-17T18:51:03.786Z,11.87
2018-10-17T18:55:07.636Z,12.50
2018-10-17T18:59:11.031Z,16.90
2018-10-17T19:03:14.686Z,21.97
2018-10-17T19:07:18.339Z,25.03
2018-10-17T19:11:21.718Z,26.57
2018-10-17T19:15:25.113Z,29.73
2018-10-17T19:19:28.750Z,33.43
2018-10-17T19:23:32.265Z,36.57
2018-10-17T19:27:35.689Z,38.17
2018-10-17T19:31:39.069Z,39.93
2018-10-17T19:35:42.474Z,42.13
2018-10-17T19:39:46.158Z,44.17
2018-10-17T19:43:50.348Z,45.90
2018-10-17T19:47:54.246Z,45.93
2018-10-17T19:51:57.644Z,46.17
2018-10-17T19:56:04.212Z,43.37
2018-10-17T20:00:10.174Z,42.40
2018-10-17T20:04:14.224Z,41.53
2018-10-17T20:08:17.952Z,41.50
2018-10-17T20:12:21.388Z,41.70
2018-10-17T20:16:25.027Z,39.17
2018-10-17T20:20:29.314Z,37.60
2018-10-17T20:24:33.186Z,37.10
2018-10-17T20:28:36.988Z,35.93
2018-10-17T20:32:40.623Z,34.97
2018-10-17T20:36:45.724Z,35.30
2018-10-17T20:40:50.494Z,35.33
2018-10-17T20:44:54.217Z,33.00
2018-10-17T20:48:57.848Z,34.10
2018-10-17T20:53:01.502Z,30.73
2018-10-17T20:57:05.319Z,32.67
2018-10-17T21:01:08.963Z,31.47
2018-10-17T21:05:12.820Z,31.00
2018-10-17T21:09:20.153Z,30.90
2018-10-17T21:13:23.533Z,31.60
2018-10-17T21:17:27.013Z,31.37
2018-10-17T21:21:30.383Z,29.60
2018-10-17T21:25:33.875Z,29.87
2018-10-17T21:29:37.279Z,30.90
2018-10-17T21:33:40.672Z,28.40
2018-10-17T21:37:44.421Z,28.23
2018-10-17T21:41:47.929Z,29.47
2018-10-17T21:45:51.351Z,29.63
2018-10-17T21:49:54.886Z,30.27
2018-10-17T21:53:58.529Z,26.17
2018-10-17T21:58:01.912Z,22.33
2018-10-17T22:02:05.455Z,24.10
2018-10-17T22:06:08.876Z,24.53
2018-10-17T22:10:12.752Z,25.43
2018-10-17T22:14:16.392Z,28.50
2018-10-17T22:18:19.847Z,30.80
2018-10-17T22:22:23.409Z,31.87
2018-10-17T22:26:26.827Z,32.97
2018-10-17T22:30:30.201Z,29.17
2018-10-17T22:34:33.648Z,32.57
2018-10-17T22:38:37.049Z,33.63
2018-10-17T22:42:40.643Z,38.73
2018-10-17T22:46:44.050Z,36.00
2018-10-17T22:50:47.441Z,38.10
2018-10-17T22:54:50.896Z,39.47
2018-10-17T22:58:54.328Z,38.73
2018-10-17T23:02:57.709Z,38.57
2018-10-17T23:07:01.494Z,33.77
2018-10-17T23:11:05.596Z,34.73
2018-10-17T23:15:11.740Z,37.13
2018-10-17T23:19:15.413Z,42.43
2018-10-17T23:23:19.981Z,39.17
2018-10-17T23:27:23.390Z,32.70
2018-10-17T23:31:26.758Z,35.83
2018-10-17T23:35:30.132Z,39.77
2018-10-17T23:39:33.554Z,43.30
2018-10-17T23:43:36.928Z,45.23
2018-10-17T23:47:40.303Z,42.70
2018-10-17T23:51:43.701Z,34.67
2018-10-17T23:55:47.149Z,34.17
2018-10-17T23:59:50.607Z,43.23
